Belton, South Carolina
Current Conditions -  °F | °C
As of 1:56 PM on Thursday 23 Oct 2014 (Local Time) from KAND Reporting Station
Clear Clear  
Wind Chill: 66°   Ceiling: Unl
Heat Index: 66°   Visibility: 10mi
Dew Point: 41°   Wind: 6mph
Humidity: 40%   Direction: 220°SW
Pressure: 30.05"   Gusts: NA
Location:  34.52°N, 82.49°W
Report Text: KAND 231756Z AUTO 22005KT 10SM CLR 19/05 A3005 RMK AO2 SLP172 T01890050 10189 20028 58024
Loading
Personal Weather Stations






























Interactive Weather Map
Tropical Storm Tracking
New forecast layout! Learn more

10-Day Weather Forecast

Advertisements
Track Severe Weather on mobile